map of MAS home
Great Circle Mapper logo
MAS - Airport
Location
City:  Lorengau, Manus Island, Manus, Papua-New Guinea
Name:Momote Airport
ICAO / IATA:AYMO / MAS

Details
Type:Airport (Aerodrome, Airfield)
Use:International (customs port of entry)
Latitude:203'43"S (-2.061888)
Longitude:14725'27"E (147.424150)
Datum:WGS 1984
Elevation:12 ft (4 m)
Runways:1
Longest:6136 × 148 ft (1870 × 45 m), paved

Time
Time Zone:UTC+10
Local Time:

Weather
METAR:AYMO 192100Z 00000KT RESH 9999SCT018 26/25 Q1009=

Related Locations
Nearby:
Farthest:FEN: 12023 mi / 19349 km
Fernando de Noronha, FN, PE, BR

Find:

   beyond  
but within

Other Information
Maps:
NOTAMs:
Links:
Sources:

  
flag of Papua-New Guinea
flag of Manus
  

Sectional Chart

Flight Planning
at skyvector.com

Satellite Image

Google Maps Satellite View

 

Copyright © 2004-2014 Karl L. Swartz. All rights reserved.
The Great Circle Mapper name and logo are trademarks of the Great Circle Mapper.
All other trademarks mentioned herein belong to their respective owners.
Please see credits for attibutions and further copyright information.

  Follow gcmap on Facebook Follow gcmap on Twitter

hCard Microformat

Geo Microformat